createdAt,value
2022-11-30T00:01:32.037Z,101911.94
2022-11-30T00:03:59.615Z,101913.56
2022-11-30T00:06:27.056Z,101915.13
2022-11-30T00:08:55.488Z,101916.88
2022-11-30T00:11:24.922Z,101916.81
2022-11-30T00:13:52.850Z,101922.56
2022-11-30T00:16:22.295Z,101923.41
2022-11-30T00:18:50.060Z,101913.41
2022-11-30T00:21:17.490Z,101914.19
2022-11-30T00:23:46.770Z,101921.56
2022-11-30T00:26:16.012Z,101921.56
2022-11-30T00:28:45.379Z,101914.94
2022-11-30T00:31:14.776Z,101891.59
2022-11-30T00:33:44.120Z,101908.34
2022-11-30T00:36:13.664Z,101892.56
2022-11-30T00:38:40.974Z,101896.78
2022-11-30T00:41:08.375Z,101893.47
2022-11-30T00:43:36.300Z,101900.13
2022-11-30T00:46:03.941Z,101891.94
2022-11-30T00:48:31.401Z,101889.34
2022-11-30T00:51:00.076Z,101889.34
2022-11-30T00:53:27.499Z,101895.03
2022-11-30T00:55:54.934Z,101894.25
2022-11-30T00:58:22.282Z,101885.19
2022-11-30T01:00:49.791Z,101886.03
2022-11-30T01:03:17.491Z,101885.97
2022-11-30T01:05:44.806Z,101892.56
2022-11-30T01:08:13.850Z,101887.63
2022-11-30T01:10:43.505Z,101887.63
2022-11-30T01:13:12.929Z,101862.59
2022-11-30T01:15:42.438Z,101885.91
2022-11-30T01:18:10.391Z,101882.50
2022-11-30T01:20:41.571Z,101882.41
2022-11-30T01:23:09.043Z,101874.88
2022-11-30T01:25:38.148Z,101881.50
2022-11-30T01:28:05.968Z,101878.84
2022-11-30T01:30:33.381Z,101881.41
2022-11-30T01:33:03.193Z,101885.53
2022-11-30T01:35:30.755Z,101884.81
2022-11-30T01:37:58.032Z,101882.38
2022-11-30T01:40:25.377Z,101884.84
2022-11-30T01:42:54.142Z,101876.59
2022-11-30T01:45:21.467Z,101884.84
2022-11-30T01:47:55.460Z,101852.44
2022-11-30T01:50:28.527Z,101879.00
2022-11-30T01:52:57.826Z,101878.19
2022-11-30T01:55:28.630Z,101877.34
2022-11-30T01:58:01.802Z,101867.38
2022-11-30T02:00:29.671Z,101876.53
2022-11-30T02:03:01.347Z,101873.22
2022-11-30T02:05:29.191Z,101864.13
2022-11-30T02:07:56.857Z,101872.38
2022-11-30T02:10:27.820Z,101869.84
2022-11-30T02:13:24.354Z,101874.75
2022-11-30T02:16:01.353Z,101875.53
2022-11-30T02:18:38.440Z,101883.72
2022-11-30T02:21:14.112Z,101871.31
2022-11-30T02:24:26.380Z,101864.78
2022-11-30T02:27:19.378Z,101867.16
2022-11-30T02:29:53.940Z,101847.03
2022-11-30T02:32:25.820Z,101862.03
2022-11-30T02:34:55.355Z,101865.31
2022-11-30T02:37:25.076Z,101830.88
2022-11-30T02:39:52.257Z,101869.28
2022-11-30T02:42:19.462Z,101860.97
2022-11-30T02:44:51.363Z,101862.66
2022-11-30T02:47:26.772Z,101858.53
2022-11-30T02:49:59.097Z,101852.66
2022-11-30T02:52:28.383Z,101860.19
2022-11-30T02:55:00.896Z,101865.13
2022-11-30T02:57:28.203Z,101860.16
2022-11-30T02:59:58.719Z,101857.66
2022-11-30T03:02:26.173Z,101853.50
2022-11-30T03:04:53.530Z,101857.53
2022-11-30T03:07:20.898Z,101841.81
2022-11-30T03:09:48.159Z,101852.53
2022-11-30T03:12:15.400Z,101864.81
2022-11-30T03:14:42.961Z,101860.72
2022-11-30T03:17:11.698Z,101868.94
2022-11-30T03:19:38.903Z,101859.88
2022-11-30T03:22:06.242Z,101867.28
2022-11-30T03:24:36.181Z,101859.78
2022-11-30T03:27:03.663Z,101860.59
2022-11-30T03:29:31.099Z,101859.69
2022-11-30T03:31:58.345Z,101856.38
2022-11-30T03:34:27.750Z,101858.84
2022-11-30T03:36:55.456Z,101864.63
2022-11-30T03:39:23.503Z,101862.03
2022-11-30T03:41:50.929Z,101857.91
2022-11-30T03:44:18.721Z,101858.66
2022-11-30T03:46:46.038Z,101853.78
2022-11-30T03:49:13.310Z,101858.72
2022-11-30T03:51:41.907Z,101858.66
2022-11-30T03:54:09.115Z,101854.56
2022-11-30T03:56:36.307Z,101861.19
2022-11-30T03:59:03.704Z,101859.56
2022-11-30T04:01:31.544Z,101860.28
2022-11-30T04:03:58.997Z,101856.25
2022-11-30T04:06:26.433Z,101857.03
2022-11-30T04:08:55.197Z,101859.50
2022-11-30T04:11:22.499Z,101854.63
2022-11-30T04:13:50.040Z,101861.19
2022-11-30T04:16:17.336Z,101857.81
2022-11-30T04:18:44.572Z,101861.91
2022-11-30T04:21:12.080Z,101861.91
2022-11-30T04:23:40.524Z,101861.19
2022-11-30T04:26:13.256Z,101827.69
2022-11-30T04:28:40.911Z,101856.25
2022-11-30T04:31:08.578Z,101859.50
2022-11-30T04:33:36.185Z,101866.13
2022-11-30T04:36:06.305Z,101856.13
2022-11-30T04:38:34.472Z,101871.06
2022-11-30T04:41:07.816Z,101875.16
2022-11-30T04:43:36.574Z,101870.22
2022-11-30T04:46:04.738Z,101868.59
2022-11-30T04:48:32.204Z,101866.13
2022-11-30T04:51:01.591Z,101866.13
2022-11-30T04:53:29.054Z,101869.38
2022-11-30T04:55:56.437Z,101872.75
2022-11-30T04:58:24.078Z,101865.16
2022-11-30T05:00:55.575Z,101870.97
2022-11-30T05:03:22.872Z,101870.03
2022-11-30T05:05:50.224Z,101874.97
2022-11-30T05:08:17.496Z,101872.47
2022-11-30T05:10:47.708Z,101880.72
2022-11-30T05:13:19.123Z,101872.34
2022-11-30T05:15:46.965Z,101875.75
2022-11-30T05:18:18.492Z,101872.38
2022-11-30T05:20:48.343Z,101871.50
2022-11-30T05:23:16.677Z,101877.25
2022-11-30T05:25:44.578Z,101870.63
2022-11-30T05:28:12.242Z,101860.66
2022-11-30T05:30:39.947Z,101868.94
2022-11-30T05:33:07.395Z,101872.22
2022-11-30T05:35:36.228Z,101882.09
2022-11-30T05:38:03.866Z,101877.16
2022-11-30T05:40:33.724Z,101898.63
2022-11-30T05:43:02.053Z,101888.78
2022-11-30T05:45:29.671Z,101888.91
2022-11-30T05:47:57.055Z,101891.47
2022-11-30T05:50:24.381Z,101903.13
2022-11-30T05:52:57.537Z,101894.97
2022-11-30T05:55:25.119Z,101889.13
2022-11-30T05:57:52.979Z,101890.78
2022-11-30T06:00:21.964Z,101899.09
2022-11-30T06:02:49.325Z,101899.09
2022-11-30T06:05:16.889Z,101902.53
2022-11-30T06:07:44.489Z,101910.13
2022-11-30T06:10:13.706Z,101914.47
2022-11-30T06:12:41.298Z,101904.78
2022-11-30T06:15:09.077Z,101912.91
2022-11-30T06:17:38.056Z,101910.63
2022-11-30T06:20:06.212Z,101915.91
2022-11-30T06:22:33.486Z,101910.25
2022-11-30T06:25:00.947Z,101906.97
2022-11-30T06:27:32.157Z,101910.97
2022-11-30T06:29:59.575Z,101915.69
2022-11-30T06:32:26.755Z,101921.53
2022-11-30T06:34:54.065Z,101915.13
2022-11-30T06:37:21.296Z,101907.84
2022-11-30T06:40:05.921Z,101914.66
2022-11-30T06:42:36.213Z,101913.13
2022-11-30T06:45:04.082Z,101918.19
2022-11-30T06:47:32.633Z,101926.44
2022-11-30T06:49:59.999Z,101926.63
2022-11-30T06:52:27.514Z,101925.06
2022-11-30T06:54:54.701Z,101922.63
2022-11-30T06:57:26.010Z,101918.59
2022-11-30T06:59:54.591Z,101922.00
2022-11-30T07:02:21.946Z,101923.81
2022-11-30T07:04:49.571Z,101914.16
2022-11-30T07:07:17.384Z,101921.28
2022-11-30T07:09:44.837Z,101915.72
2022-11-30T07:12:12.250Z,101922.38
2022-11-30T07:14:39.449Z,101918.94
2022-11-30T07:17:08.045Z,101922.31
2022-11-30T07:19:35.527Z,101927.38
2022-11-30T07:22:02.898Z,101930.66
2022-11-30T07:24:48.786Z,101912.31
2022-11-30T07:27:16.216Z,101927.66
2022-11-30T07:29:43.605Z,101934.41
2022-11-30T07:32:12.311Z,101941.03
2022-11-30T07:34:39.811Z,101937.69
2022-11-30T07:37:07.048Z,101926.47
2022-11-30T07:39:34.317Z,101941.34
2022-11-30T07:42:02.087Z,101938.69
2022-11-30T07:44:29.585Z,101944.34
2022-11-30T07:46:56.849Z,101942.59
2022-11-30T07:49:25.786Z,101950.66
2022-11-30T07:51:53.249Z,101939.06
2022-11-30T07:54:20.709Z,101942.34
2022-11-30T07:56:48.055Z,101942.28
2022-11-30T07:59:15.729Z,101939.06
2022-11-30T08:01:43.170Z,101930.81
2022-11-30T08:04:13.997Z,101935.19
2022-11-30T08:06:42.927Z,101942.16
2022-11-30T08:09:16.563Z,101939.09
2022-11-30T08:11:50.080Z,101934.25
2022-11-30T08:14:17.630Z,101939.50
2022-11-30T08:16:44.968Z,101936.53
2022-11-30T08:19:12.359Z,101931.72
2022-11-30T08:21:39.740Z,101933.53
2022-11-30T08:24:13.181Z,101933.69
2022-11-30T08:26:40.598Z,101926.38
2022-11-30T08:29:11.681Z,101929.84
2022-11-30T08:31:39.108Z,101927.53
2022-11-30T08:34:08.235Z,101933.66
2022-11-30T08:36:35.682Z,101912.38
2022-11-30T08:39:05.712Z,101885.66
2022-11-30T08:41:35.631Z,101909.16
2022-11-30T08:44:02.928Z,101909.41
2022-11-30T08:49:23.388Z,101908.03
2022-11-30T08:54:42.900Z,101917.50
2022-11-30T08:57:11.918Z,101906.91
2022-11-30T08:59:39.395Z,101912.09
2022-11-30T09:02:06.929Z,101906.44
2022-11-30T09:04:34.289Z,101910.56
2022-11-30T09:07:01.701Z,101913.22
2022-11-30T09:09:29.650Z,101909.31
2022-11-30T09:11:57.135Z,101912.88
2022-11-30T09:14:25.996Z,101910.50
2022-11-30T09:16:53.734Z,101903.22
2022-11-30T09:19:21.487Z,101903.41
2022-11-30T09:21:51.975Z,101900.16
2022-11-30T09:24:19.958Z,101900.31
2022-11-30T09:26:47.863Z,101900.44
2022-11-30T09:29:15.235Z,101904.63
2022-11-30T09:31:44.045Z,101895.56
2022-11-30T09:34:12.216Z,101894.00
2022-11-30T09:36:39.656Z,101900.66
2022-11-30T09:39:07.481Z,101896.56
2022-11-30T09:42:06.644Z,101896.63
2022-11-30T09:44:44.138Z,101896.63
2022-11-30T09:47:31.890Z,101903.28
2022-11-30T09:50:03.902Z,101894.19
2022-11-30T09:52:36.714Z,101902.41
2022-11-30T09:55:09.504Z,101894.84
2022-11-30T09:57:44.693Z,101889.91
2022-11-30T10:00:16.561Z,101896.63
2022-11-30T10:02:46.289Z,101902.56
2022-11-30T10:05:15.129Z,101905.09
2022-11-30T10:08:00.066Z,101897.66
2022-11-30T10:10:36.567Z,101884.31
2022-11-30T10:13:19.073Z,101898.53
2022-11-30T10:15:58.528Z,101896.13
2022-11-30T10:18:37.731Z,101903.63
2022-11-30T10:21:17.170Z,101891.94
2022-11-30T10:24:01.675Z,101896.84
2022-11-30T10:26:34.103Z,101896.81
2022-11-30T10:29:13.706Z,101895.22
2022-11-30T10:31:44.440Z,101886.97
2022-11-30T10:34:22.331Z,101895.28
2022-11-30T10:36:55.194Z,101897.00
2022-11-30T10:39:28.243Z,101891.19
2022-11-30T10:42:02.199Z,101888.69
2022-11-30T10:44:34.504Z,101892.09
2022-11-30T10:47:07.294Z,101897.13
2022-11-30T10:49:39.756Z,101887.13
2022-11-30T10:52:09.296Z,101891.34
2022-11-30T10:54:37.240Z,101897.97
2022-11-30T10:57:07.247Z,101885.47
2022-11-30T10:59:41.676Z,101887.97
2022-11-30T11:02:33.714Z,101891.28
2022-11-30T11:05:17.982Z,101875.44
2022-11-30T11:07:52.694Z,101882.16
2022-11-30T11:10:24.757Z,101870.56
2022-11-30T11:13:10.413Z,101875.59
2022-11-30T11:15:38.877Z,101873.16
2022-11-30T11:18:30.269Z,101886.44
2022-11-30T11:21:07.117Z,101880.63
2022-11-30T11:23:37.543Z,101870.63
2022-11-30T11:26:07.246Z,101866.50
2022-11-30T11:28:36.224Z,101874.00
2022-11-30T11:31:16.898Z,101861.50
2022-11-30T11:33:52.678Z,101881.47
2022-11-30T11:36:26.003Z,101882.28
2022-11-30T11:38:53.539Z,101886.44
2022-11-30T11:41:26.951Z,101879.78
2022-11-30T11:44:01.438Z,101878.94
2022-11-30T11:46:30.112Z,101878.94
2022-11-30T11:48:59.629Z,101863.94
2022-11-30T11:51:33.347Z,101878.94
2022-11-30T11:54:04.920Z,101878.09
2022-11-30T11:56:34.350Z,101879.75
2022-11-30T11:59:07.290Z,101882.25
2022-11-30T12:01:46.632Z,101882.25
2022-11-30T12:04:30.170Z,101878.91
2022-11-30T12:07:04.988Z,101865.56
2022-11-30T12:09:36.528Z,101881.41
2022-11-30T12:12:04.081Z,101886.41
2022-11-30T12:14:35.364Z,101882.22
2022-11-30T12:17:39.123Z,101892.97
2022-11-30T12:20:18.521Z,101875.41
2022-11-30T12:23:02.216Z,101891.19
2022-11-30T12:25:33.622Z,101894.44
2022-11-30T12:28:15.260Z,101893.53
2022-11-30T12:30:52.666Z,101888.53
2022-11-30T12:33:30.216Z,101890.06
2022-11-30T12:36:03.439Z,101876.47
2022-11-30T12:38:40.537Z,101892.22
2022-11-30T12:41:31.193Z,101888.75
2022-11-30T12:44:09.320Z,101854.28
2022-11-30T12:46:46.766Z,101896.03
2022-11-30T12:49:26.797Z,101892.56
2022-11-30T12:52:00.013Z,101909.09
2022-11-30T12:54:35.297Z,101910.56
2022-11-30T12:57:11.818Z,101902.97
2022-11-30T12:59:47.957Z,101906.94
2022-11-30T13:02:47.994Z,101902.66
2022-11-30T13:05:21.466Z,101908.31
2022-11-30T13:07:56.491Z,101904.78
2022-11-30T13:10:30.707Z,101917.19
2022-11-30T13:13:00.431Z,101918.84
2022-11-30T13:15:31.073Z,101902.13
2022-11-30T13:17:58.712Z,101908.09
2022-11-30T13:20:33.912Z,101912.22
2022-11-30T13:23:10.184Z,101904.78
2022-11-30T13:26:07.427Z,101906.47
2022-11-30T13:28:50.935Z,101903.13
2022-11-30T13:31:24.553Z,101905.56
2022-11-30T13:33:59.255Z,101892.13
2022-11-30T13:36:32.442Z,101904.63
2022-11-30T13:39:29.331Z,101909.53
2022-11-30T13:42:30.094Z,101911.91
2022-11-30T13:45:25.947Z,101905.22
2022-11-30T13:47:54.821Z,101897.63
2022-11-30T13:50:32.514Z,101871.63
2022-11-30T13:53:25.768Z,101897.44
2022-11-30T13:55:58.897Z,101893.28
2022-11-30T13:58:28.408Z,101892.38
2022-11-30T14:01:25.783Z,101894.91
2022-11-30T14:04:22.920Z,101894.81
2022-11-30T14:06:51.444Z,101890.63
2022-11-30T14:10:08.055Z,101892.16
2022-11-30T14:12:46.951Z,101901.22
2022-11-30T14:16:00.643Z,101875.59
2022-11-30T14:18:40.046Z,101890.53
2022-11-30T14:21:21.769Z,101883.03
2022-11-30T14:23:55.572Z,101893.81
2022-11-30T14:26:28.727Z,101887.19
2022-11-30T14:29:02.664Z,101885.50
2022-11-30T14:31:34.499Z,101886.34
2022-11-30T14:34:09.707Z,101890.34
2022-11-30T14:36:41.838Z,101856.91
2022-11-30T14:39:24.379Z,101890.22
2022-11-30T14:41:51.613Z,101891.78
2022-11-30T14:44:18.875Z,101886.59
2022-11-30T14:46:46.443Z,101894.75
2022-11-30T14:49:17.396Z,101869.69
2022-11-30T14:51:47.580Z,101893.75
2022-11-30T14:54:38.781Z,101898.75
2022-11-30T14:57:16.111Z,101904.41
2022-11-30T14:59:49.991Z,101895.38
2022-11-30T15:02:26.461Z,101884.41
2022-11-30T15:04:57.051Z,101899.31
2022-11-30T15:07:25.876Z,101892.66
2022-11-30T15:10:01.861Z,101887.66
2022-11-30T15:12:30.857Z,101890.16
2022-11-30T15:15:14.927Z,101884.28
2022-11-30T15:17:51.978Z,101896.69
2022-11-30T15:20:28.057Z,101891.75
2022-11-30T15:22:57.837Z,101895.88
2022-11-30T15:25:33.632Z,101879.22
2022-11-30T15:28:01.748Z,101897.69
2022-11-30T15:30:29.263Z,101877.59
2022-11-30T15:32:57.550Z,101879.22
2022-11-30T15:35:38.752Z,101896.63
2022-11-30T15:38:19.605Z,101890.78
2022-11-30T15:40:53.422Z,101897.38
2022-11-30T15:43:24.193Z,101901.38
2022-11-30T15:45:54.245Z,101893.09
2022-11-30T15:48:30.658Z,101878.00
2022-11-30T15:51:00.533Z,101895.53
2022-11-30T15:53:33.671Z,101887.25
2022-11-30T15:56:04.269Z,101892.13
2022-11-30T15:58:45.678Z,101883.88
2022-11-30T16:01:17.067Z,101897.97
2022-11-30T16:04:05.345Z,101892.22
2022-11-30T16:06:36.972Z,101889.69
2022-11-30T16:09:17.761Z,101886.22
2022-11-30T16:11:45.452Z,101887.16
2022-11-30T16:14:18.728Z,101901.00
2022-11-30T16:16:46.912Z,101891.00
2022-11-30T16:19:14.222Z,101898.44
2022-11-30T16:21:42.997Z,101889.38
2022-11-30T16:24:13.591Z,101885.22
2022-11-30T16:26:51.144Z,101890.13
2022-11-30T16:29:19.288Z,101885.13
2022-11-30T16:31:46.668Z,101881.63
2022-11-30T16:34:14.327Z,101874.19
2022-11-30T16:36:42.958Z,101889.97
2022-11-30T16:39:12.346Z,101878.41
2022-11-30T16:41:39.770Z,101885.88
2022-11-30T16:44:13.344Z,101889.06
2022-11-30T16:46:40.326Z,101885.88
2022-11-30T16:49:07.464Z,101884.28
2022-11-30T16:51:35.206Z,101882.56
2022-11-30T16:54:04.304Z,101885.78
2022-11-30T16:56:31.636Z,101879.81
2022-11-30T16:58:59.047Z,101874.00
2022-11-30T17:01:34.866Z,101876.41
2022-11-30T17:04:10.520Z,101874.72
2022-11-30T17:06:37.822Z,101879.69
2022-11-30T17:09:09.869Z,101881.28
2022-11-30T17:11:48.126Z,101882.81
2022-11-30T17:14:15.385Z,101885.25
2022-11-30T17:16:45.878Z,101883.50
2022-11-30T17:19:13.188Z,101883.59
2022-11-30T17:21:42.314Z,101884.34
2022-11-30T17:24:11.901Z,101877.66
2022-11-30T17:26:55.430Z,101887.63
2022-11-30T17:29:22.893Z,101886.88
2022-11-30T17:31:59.109Z,101892.56
2022-11-30T17:34:32.840Z,101895.03
2022-11-30T17:37:03.030Z,101890.06
2022-11-30T17:39:40.406Z,101889.28
2022-11-30T17:42:15.699Z,101895.81
2022-11-30T17:44:51.057Z,101884.28
2022-11-30T17:47:22.012Z,101892.50
2022-11-30T17:49:58.571Z,101881.72
2022-11-30T17:52:31.712Z,101860.81
2022-11-30T17:55:01.929Z,101878.28
2022-11-30T17:58:20.954Z,101891.56
2022-11-30T18:01:20.207Z,101891.59
2022-11-30T18:03:50.774Z,101885.78
2022-11-30T18:06:29.865Z,101897.31
2022-11-30T18:09:53.142Z,101879.94
2022-11-30T18:15:18.173Z,101890.56
2022-11-30T18:18:17.278Z,101894.69
2022-11-30T18:20:45.326Z,101891.16
2022-11-30T18:23:22.602Z,101897.03
2022-11-30T18:25:53.544Z,101901.91
2022-11-30T18:28:26.941Z,101896.00
2022-11-30T18:31:01.138Z,101889.28
2022-11-30T18:33:31.064Z,101900.84
2022-11-30T18:36:02.719Z,101894.16
2022-11-30T18:38:57.917Z,101904.00
2022-11-30T18:41:59.701Z,101898.13
2022-11-30T18:44:39.694Z,101898.13
2022-11-30T18:47:15.409Z,101909.69
2022-11-30T18:50:34.319Z,101907.94
2022-11-30T18:53:33.734Z,101910.31
2022-11-30T18:56:09.746Z,101906.94
2022-11-30T18:58:43.764Z,101912.72
2022-11-30T19:01:48.513Z,101911.88
2022-11-30T19:04:25.038Z,101911.06
2022-11-30T19:07:30.021Z,101920.09
2022-11-30T19:09:59.705Z,101906.78
2022-11-30T19:12:29.849Z,101915.03
2022-11-30T19:15:30.569Z,101914.97
2022-11-30T19:18:51.235Z,101915.72
2022-11-30T19:21:48.024Z,101917.28
2022-11-30T19:27:18.541Z,101915.50
2022-11-30T19:32:50.090Z,101921.09
2022-11-30T19:35:27.697Z,101931.81
2022-11-30T19:37:55.062Z,101924.41
2022-11-30T19:40:50.024Z,101919.41
2022-11-30T19:44:15.123Z,101932.63
2022-11-30T19:46:52.915Z,101941.63
2022-11-30T19:49:50.123Z,101937.50
2022-11-30T19:52:27.959Z,101943.38
2022-11-30T19:58:50.320Z,101938.34
2022-11-30T20:01:47.234Z,101947.41
2022-11-30T20:04:18.154Z,101953.00
2022-11-30T20:06:45.498Z,101950.47
2022-11-30T20:09:14.240Z,101959.50
2022-11-30T20:11:41.724Z,101953.69
2022-11-30T20:14:15.046Z,101961.97
2022-11-30T20:16:42.524Z,101956.19
2022-11-30T20:19:09.762Z,101961.16
2022-11-30T20:21:37.251Z,101956.19
2022-11-30T20:24:09.280Z,101951.97
2022-11-30T20:26:39.858Z,101970.06
2022-11-30T20:29:11.290Z,101951.59
2022-11-30T20:31:38.688Z,101964.25
2022-11-30T20:34:08.213Z,101966.63
2022-11-30T20:36:36.192Z,101965.66
2022-11-30T20:39:04.082Z,101961.44
2022-11-30T20:41:31.451Z,101967.28
2022-11-30T20:44:00.295Z,101967.16
2022-11-30T20:46:29.309Z,101969.56
2022-11-30T20:48:57.875Z,101965.34
2022-11-30T20:51:32.031Z,101941.25
2022-11-30T20:54:01.300Z,101952.09
2022-11-30T20:56:28.771Z,101952.09
2022-11-30T20:58:56.572Z,101955.31
2022-11-30T21:01:25.500Z,101948.72
2022-11-30T21:03:52.915Z,101961.06
2022-11-30T21:06:20.163Z,101958.59
2022-11-30T21:08:47.445Z,101956.03
2022-11-30T21:11:17.205Z,101935.19
2022-11-30T21:13:46.522Z,101961.81
2022-11-30T21:16:16.411Z,101966.78
2022-11-30T21:18:46.432Z,101969.22
2022-11-30T21:21:17.307Z,101933.81
2022-11-30T21:23:45.416Z,101974.69
2022-11-30T21:26:18.038Z,101968.09
2022-11-30T21:28:46.458Z,101965.53
2022-11-30T21:31:14.543Z,101969.72
2022-11-30T21:33:44.536Z,101974.69
2022-11-30T21:36:19.043Z,101978.78
2022-11-30T21:38:46.422Z,101970.53
2022-11-30T21:41:14.862Z,101958.13
2022-11-30T21:43:42.327Z,101965.53
2022-11-30T21:46:12.822Z,101962.88
2022-11-30T21:48:42.031Z,101966.16
2022-11-30T21:51:11.824Z,101978.44
2022-11-30T21:53:43.609Z,101974.22
2022-11-30T21:56:15.179Z,101975.78
2022-11-30T21:58:44.192Z,101969.03
2022-11-30T22:01:13.520Z,101974.03
2022-11-30T22:03:40.953Z,101968.84
2022-11-30T22:06:10.378Z,101974.59
2022-11-30T22:08:37.967Z,101972.00
2022-11-30T22:11:08.443Z,101976.88
2022-11-30T22:13:36.118Z,101972.56
2022-11-30T22:16:05.554Z,101975.84
2022-11-30T22:18:33.223Z,101971.66
2022-11-30T22:21:04.899Z,101968.28
2022-11-30T22:23:32.678Z,101975.50
2022-11-30T22:26:13.255Z,101974.41
2022-11-30T22:28:41.661Z,101968.56
2022-11-30T22:31:11.175Z,101974.13
2022-11-30T22:33:39.994Z,101964.19
2022-11-30T22:36:13.486Z,101945.75
2022-11-30T22:38:41.145Z,101953.91
2022-11-30T22:41:11.849Z,101957.31
2022-11-30T22:43:39.582Z,101974.53
2022-11-30T22:46:08.703Z,101969.53
2022-11-30T22:48:37.548Z,101964.63
2022-11-30T22:51:06.678Z,101961.16
2022-11-30T22:53:35.213Z,101971.88
2022-11-30T22:56:04.321Z,101966.81
2022-11-30T22:58:33.618Z,101983.41
2022-11-30T23:01:09.510Z,101976.78
2022-11-30T23:03:37.710Z,101975.94
2022-11-30T23:06:06.080Z,101984.19
2022-11-30T23:08:34.198Z,101980.03
2022-11-30T23:11:04.042Z,101970.94
2022-11-30T23:13:32.984Z,101979.13
2022-11-30T23:16:00.389Z,101979.97
2022-11-30T23:18:28.115Z,101974.19
2022-11-30T23:20:55.881Z,101976.50
2022-11-30T23:23:23.928Z,101977.50
2022-11-30T23:25:51.369Z,101988.00
2022-11-30T23:28:18.696Z,101978.16
2022-11-30T23:30:47.469Z,101978.97
2022-11-30T23:33:14.823Z,101988.78
2022-11-30T23:35:44.225Z,101977.75
2022-11-30T23:38:12.446Z,101975.19
2022-11-30T23:40:39.682Z,101985.72
2022-11-30T23:43:07.000Z,101977.38
2022-11-30T23:45:35.032Z,101972.41
2022-11-30T23:48:03.837Z,101975.69
2022-11-30T23:50:31.222Z,101975.69
2022-11-30T23:52:58.471Z,101972.31
2022-11-30T23:55:25.723Z,101966.47
2022-11-30T23:57:52.921Z,101965.50
